sensor_id;sensor_type;location;lat;lon;timestamp;P1;durP1;ratioP1;P2;durP2;ratioP2
65831;SDS011;52593;42.648;23.332;2023-04-03T00:00:28;10.70;;;2.25;;
65831;SDS011;52593;42.648;23.332;2023-04-03T00:02:53;5.83;;;2.30;;
65831;SDS011;52593;42.648;23.332;2023-04-03T00:05:19;5.80;;;2.13;;
65831;SDS011;52593;42.648;23.332;2023-04-03T00:07:44;6.53;;;2.70;;
65831;SDS011;52593;42.648;23.332;2023-04-03T00:10:10;7.03;;;2.20;;
65831;SDS011;52593;42.648;23.332;2023-04-03T00:12:37;5.20;;;2.22;;
65831;SDS011;52593;42.648;23.332;2023-04-03T00:15:02;5.97;;;2.17;;
65831;SDS011;52593;42.648;23.332;2023-04-03T00:17:28;5.32;;;2.20;;
65831;SDS011;52593;42.648;23.332;2023-04-03T00:19:54;7.40;;;2.20;;
65831;SDS011;52593;42.648;23.332;2023-04-03T00:22:19;6.00;;;2.20;;
65831;SDS011;52593;42.648;23.332;2023-04-03T00:24:45;5.35;;;2.00;;
65831;SDS011;52593;42.648;23.332;2023-04-03T00:27:10;5.10;;;2.10;;
65831;SDS011;52593;42.648;23.332;2023-04-03T00:29:36;5.70;;;2.23;;
65831;SDS011;52593;42.648;23.332;2023-04-03T00:32:01;5.25;;;2.00;;
65831;SDS011;52593;42.648;23.332;2023-04-03T00:34:27;5.77;;;1.90;;
65831;SDS011;52593;42.648;23.332;2023-04-03T00:36:52;5.77;;;1.80;;
65831;SDS011;52593;42.648;23.332;2023-04-03T00:39:17;4.47;;;1.80;;
65831;SDS011;52593;42.648;23.332;2023-04-03T00:41:43;5.53;;;1.97;;
65831;SDS011;52593;42.648;23.332;2023-04-03T00:46:58;6.03;;;2.10;;
65831;SDS011;52593;42.648;23.332;2023-04-03T00:49:24;4.53;;;1.52;;
65831;SDS011;52593;42.648;23.332;2023-04-03T00:51:50;6.28;;;1.67;;
65831;SDS011;52593;42.648;23.332;2023-04-03T00:54:16;5.47;;;1.93;;
65831;SDS011;52593;42.648;23.332;2023-04-03T00:56:41;5.47;;;1.83;;
65831;SDS011;52593;42.648;23.332;2023-04-03T00:59:12;4.63;;;1.70;;
65831;SDS011;52593;42.648;23.332;2023-04-03T01:01:41;5.43;;;1.88;;
65831;SDS011;52593;42.648;23.332;2023-04-03T01:06:56;6.28;;;1.80;;
65831;SDS011;52593;42.648;23.332;2023-04-03T01:09:25;9.98;;;1.80;;
65831;SDS011;52593;42.648;23.332;2023-04-03T01:11:51;5.15;;;1.67;;
65831;SDS011;52593;42.648;23.332;2023-04-03T01:14:16;4.93;;;1.83;;
65831;SDS011;52593;42.648;23.332;2023-04-03T01:16:42;5.03;;;1.67;;
65831;SDS011;52593;42.648;23.332;2023-04-03T01:19:08;4.73;;;1.50;;
65831;SDS011;52593;42.648;23.332;2023-04-03T01:24:57;4.47;;;1.43;;
65831;SDS011;52593;42.648;23.332;2023-04-03T01:27:18;5.00;;;1.60;;
65831;SDS011;52593;42.648;23.332;2023-04-03T01:29:43;4.63;;;1.60;;
65831;SDS011;52593;42.648;23.332;2023-04-03T01:32:09;5.18;;;1.38;;
65831;SDS011;52593;42.648;23.332;2023-04-03T01:34:35;4.07;;;1.20;;
65831;SDS011;52593;42.648;23.332;2023-04-03T01:37:00;4.78;;;1.45;;
65831;SDS011;52593;42.648;23.332;2023-04-03T01:39:26;5.13;;;1.57;;
65831;SDS011;52593;42.648;23.332;2023-04-03T01:41:51;5.00;;;1.80;;
65831;SDS011;52593;42.648;23.332;2023-04-03T01:44:17;5.80;;;1.83;;
65831;SDS011;52593;42.648;23.332;2023-04-03T01:46:42;4.10;;;1.57;;
65831;SDS011;52593;42.648;23.332;2023-04-03T01:49:08;4.72;;;1.70;;
65831;SDS011;52593;42.648;23.332;2023-04-03T01:51:33;5.53;;;1.77;;
65831;SDS011;52593;42.648;23.332;2023-04-03T01:53:59;5.47;;;2.00;;
65831;SDS011;52593;42.648;23.332;2023-04-03T01:56:24;4.60;;;1.80;;
65831;SDS011;52593;42.648;23.332;2023-04-03T01:58:50;6.78;;;1.98;;
65831;SDS011;52593;42.648;23.332;2023-04-03T02:01:15;5.67;;;1.93;;
65831;SDS011;52593;42.648;23.332;2023-04-03T02:03:41;6.37;;;2.03;;
65831;SDS011;52593;42.648;23.332;2023-04-03T02:06:06;5.38;;;2.20;;
65831;SDS011;52593;42.648;23.332;2023-04-03T02:08:32;6.43;;;2.63;;
65831;SDS011;52593;42.648;23.332;2023-04-03T02:10:57;6.50;;;2.30;;
65831;SDS011;52593;42.648;23.332;2023-04-03T02:13:22;8.20;;;2.47;;
65831;SDS011;52593;42.648;23.332;2023-04-03T02:15:48;7.27;;;2.63;;
65831;SDS011;52593;42.648;23.332;2023-04-03T02:18:13;8.30;;;2.57;;
65831;SDS011;52593;42.648;23.332;2023-04-03T02:20:39;6.35;;;2.50;;
65831;SDS011;52593;42.648;23.332;2023-04-03T02:23:04;5.83;;;2.30;;
65831;SDS011;52593;42.648;23.332;2023-04-03T02:25:31;6.50;;;2.40;;
65831;SDS011;52593;42.648;23.332;2023-04-03T02:27:57;6.13;;;2.60;;
65831;SDS011;52593;42.648;23.332;2023-04-03T02:30:22;7.07;;;2.77;;
65831;SDS011;52593;42.648;23.332;2023-04-03T02:32:48;5.88;;;2.42;;
65831;SDS011;52593;42.648;23.332;2023-04-03T02:35:13;9.03;;;2.50;;
65831;SDS011;52593;42.648;23.332;2023-04-03T02:37:39;6.60;;;2.50;;
65831;SDS011;52593;42.648;23.332;2023-04-03T02:40:05;6.53;;;2.83;;
65831;SDS011;52593;42.648;23.332;2023-04-03T02:42:31;7.90;;;2.40;;
65831;SDS011;52593;42.648;23.332;2023-04-03T02:44:56;6.38;;;2.42;;
65831;SDS011;52593;42.648;23.332;2023-04-03T02:47:22;5.90;;;2.60;;
65831;SDS011;52593;42.648;23.332;2023-04-03T02:49:47;5.72;;;2.50;;
65831;SDS011;52593;42.648;23.332;2023-04-03T02:52:13;6.37;;;2.57;;
65831;SDS011;52593;42.648;23.332;2023-04-03T02:54:39;6.97;;;2.80;;
65831;SDS011;52593;42.648;23.332;2023-04-03T02:57:05;6.47;;;2.63;;
65831;SDS011;52593;42.648;23.332;2023-04-03T02:59:32;6.95;;;2.97;;
65831;SDS011;52593;42.648;23.332;2023-04-03T03:01:58;6.83;;;2.90;;
65831;SDS011;52593;42.648;23.332;2023-04-03T03:04:23;5.73;;;2.43;;
65831;SDS011;52593;42.648;23.332;2023-04-03T03:06:49;6.88;;;3.22;;
65831;SDS011;52593;42.648;23.332;2023-04-03T03:09:15;9.73;;;2.97;;
65831;SDS011;52593;42.648;23.332;2023-04-03T03:11:41;7.65;;;3.20;;
65831;SDS011;52593;42.648;23.332;2023-04-03T03:14:07;12.70;;;4.23;;
65831;SDS011;52593;42.648;23.332;2023-04-03T03:16:32;8.00;;;3.00;;
65831;SDS011;52593;42.648;23.332;2023-04-03T03:18:58;8.50;;;2.90;;
65831;SDS011;52593;42.648;23.332;2023-04-03T03:21:23;9.23;;;3.30;;
65831;SDS011;52593;42.648;23.332;2023-04-03T03:23:48;8.37;;;3.40;;
65831;SDS011;52593;42.648;23.332;2023-04-03T03:26:14;9.52;;;3.75;;
65831;SDS011;52593;42.648;23.332;2023-04-03T03:28:39;9.93;;;3.73;;
65831;SDS011;52593;42.648;23.332;2023-04-03T03:31:06;7.47;;;3.30;;
65831;SDS011;52593;42.648;23.332;2023-04-03T03:33:31;11.13;;;3.40;;
65831;SDS011;52593;42.648;23.332;2023-04-03T03:35:57;10.18;;;3.28;;
65831;SDS011;52593;42.648;23.332;2023-04-03T03:38:23;8.27;;;3.43;;
65831;SDS011;52593;42.648;23.332;2023-04-03T03:40:48;9.82;;;3.47;;
65831;SDS011;52593;42.648;23.332;2023-04-03T03:43:16;7.83;;;3.03;;
65831;SDS011;52593;42.648;23.332;2023-04-03T03:45:42;13.57;;;3.60;;
65831;SDS011;52593;42.648;23.332;2023-04-03T03:48:08;8.05;;;3.20;;
65831;SDS011;52593;42.648;23.332;2023-04-03T03:50:33;6.93;;;2.73;;
65831;SDS011;52593;42.648;23.332;2023-04-03T03:52:59;7.57;;;2.83;;
65831;SDS011;52593;42.648;23.332;2023-04-03T03:55:25;8.53;;;2.87;;
65831;SDS011;52593;42.648;23.332;2023-04-03T03:57:50;7.28;;;2.63;;
65831;SDS011;52593;42.648;23.332;2023-04-03T04:00:16;6.90;;;2.73;;
65831;SDS011;52593;42.648;23.332;2023-04-03T04:02:42;7.57;;;2.40;;
65831;SDS011;52593;42.648;23.332;2023-04-03T04:05:07;7.33;;;2.30;;
65831;SDS011;52593;42.648;23.332;2023-04-03T04:07:33;5.90;;;2.42;;
65831;SDS011;52593;42.648;23.332;2023-04-03T04:09:58;5.63;;;2.20;;
65831;SDS011;52593;42.648;23.332;2023-04-03T04:12:24;6.70;;;2.67;;
65831;SDS011;52593;42.648;23.332;2023-04-03T04:14:49;6.40;;;2.53;;
65831;SDS011;52593;42.648;23.332;2023-04-03T04:17:15;5.87;;;2.40;;
65831;SDS011;52593;42.648;23.332;2023-04-03T04:19:40;5.60;;;2.70;;
65831;SDS011;52593;42.648;23.332;2023-04-03T04:22:06;6.00;;;2.60;;
65831;SDS011;52593;42.648;23.332;2023-04-03T04:24:31;6.70;;;2.80;;
65831;SDS011;52593;42.648;23.332;2023-04-03T04:26:57;8.82;;;2.60;;
65831;SDS011;52593;42.648;23.332;2023-04-03T04:29:22;6.67;;;2.90;;
65831;SDS011;52593;42.648;23.332;2023-04-03T04:31:47;7.43;;;2.90;;
65831;SDS011;52593;42.648;23.332;2023-04-03T04:34:13;7.90;;;3.20;;
65831;SDS011;52593;42.648;23.332;2023-04-03T04:36:38;6.90;;;3.05;;
65831;SDS011;52593;42.648;23.332;2023-04-03T04:39:04;13.40;;;3.43;;
65831;SDS011;52593;42.648;23.332;2023-04-03T04:41:30;10.30;;;3.97;;
65831;SDS011;52593;42.648;23.332;2023-04-03T04:43:55;6.77;;;3.03;;
65831;SDS011;52593;42.648;23.332;2023-04-03T04:46:21;9.73;;;3.30;;
65831;SDS011;52593;42.648;23.332;2023-04-03T04:48:46;11.60;;;3.75;;
65831;SDS011;52593;42.648;23.332;2023-04-03T04:51:13;10.57;;;4.50;;
65831;SDS011;52593;42.648;23.332;2023-04-03T04:53:39;13.40;;;4.85;;
65831;SDS011;52593;42.648;23.332;2023-04-03T04:56:05;11.02;;;4.50;;
65831;SDS011;52593;42.648;23.332;2023-04-03T04:58:31;14.88;;;5.05;;
65831;SDS011;52593;42.648;23.332;2023-04-03T05:01:00;13.13;;;4.80;;
65831;SDS011;52593;42.648;23.332;2023-04-03T05:03:31;14.07;;;4.93;;
65831;SDS011;52593;42.648;23.332;2023-04-03T05:05:56;14.83;;;5.27;;
65831;SDS011;52593;42.648;23.332;2023-04-03T05:08:22;17.35;;;5.47;;
65831;SDS011;52593;42.648;23.332;2023-04-03T05:10:47;17.67;;;5.23;;
65831;SDS011;52593;42.648;23.332;2023-04-03T05:13:13;17.33;;;5.23;;
65831;SDS011;52593;42.648;23.332;2023-04-03T05:15:39;14.18;;;5.18;;
65831;SDS011;52593;42.648;23.332;2023-04-03T05:18:04;13.37;;;5.30;;
65831;SDS011;52593;42.648;23.332;2023-04-03T05:20:31;15.88;;;5.43;;
65831;SDS011;52593;42.648;23.332;2023-04-03T05:22:57;17.27;;;6.05;;
65831;SDS011;52593;42.648;23.332;2023-04-03T05:25:22;19.27;;;5.90;;
65831;SDS011;52593;42.648;23.332;2023-04-03T05:27:48;20.43;;;6.53;;
65831;SDS011;52593;42.648;23.332;2023-04-03T05:30:13;18.33;;;6.23;;
65831;SDS011;52593;42.648;23.332;2023-04-03T05:32:39;17.10;;;6.57;;
65831;SDS011;52593;42.648;23.332;2023-04-03T05:35:05;16.38;;;6.38;;
65831;SDS011;52593;42.648;23.332;2023-04-03T05:37:31;15.63;;;6.10;;
65831;SDS011;52593;42.648;23.332;2023-04-03T05:39:56;14.85;;;6.22;;
65831;SDS011;52593;42.648;23.332;2023-04-03T05:42:22;16.03;;;6.20;;
65831;SDS011;52593;42.648;23.332;2023-04-03T05:44:48;15.60;;;5.85;;
65831;SDS011;52593;42.648;23.332;2023-04-03T05:47:15;16.17;;;6.00;;
65831;SDS011;52593;42.648;23.332;2023-04-03T05:49:40;15.60;;;5.93;;
65831;SDS011;52593;42.648;23.332;2023-04-03T05:52:10;12.37;;;5.60;;
65831;SDS011;52593;42.648;23.332;2023-04-03T05:54:45;12.25;;;5.43;;
65831;SDS011;52593;42.648;23.332;2023-04-03T05:57:13;14.98;;;5.97;;
65831;SDS011;52593;42.648;23.332;2023-04-03T05:59:38;14.63;;;5.97;;
65831;SDS011;52593;42.648;23.332;2023-04-03T06:02:04;12.40;;;5.60;;
65831;SDS011;52593;42.648;23.332;2023-04-03T06:04:29;14.73;;;6.25;;
65831;SDS011;52593;42.648;23.332;2023-04-03T06:06:56;17.60;;;6.50;;
65831;SDS011;52593;42.648;23.332;2023-04-03T06:09:24;17.70;;;7.25;;
65831;SDS011;52593;42.648;23.332;2023-04-03T06:11:52;17.00;;;7.00;;
65831;SDS011;52593;42.648;23.332;2023-04-03T06:14:18;20.17;;;8.20;;
65831;SDS011;52593;42.648;23.332;2023-04-03T06:16:43;18.85;;;7.80;;
65831;SDS011;52593;42.648;23.332;2023-04-03T06:19:09;18.33;;;7.67;;
65831;SDS011;52593;42.648;23.332;2023-04-03T06:21:36;18.48;;;6.95;;
65831;SDS011;52593;42.648;23.332;2023-04-03T06:24:03;14.85;;;6.85;;
65831;SDS011;52593;42.648;23.332;2023-04-03T06:26:30;19.52;;;8.05;;
65831;SDS011;52593;42.648;23.332;2023-04-03T06:28:55;17.17;;;8.20;;
65831;SDS011;52593;42.648;23.332;2023-04-03T06:31:21;20.77;;;8.48;;
65831;SDS011;52593;42.648;23.332;2023-04-03T06:33:46;19.03;;;8.33;;
65831;SDS011;52593;42.648;23.332;2023-04-03T06:36:12;19.27;;;8.80;;
65831;SDS011;52593;42.648;23.332;2023-04-03T06:38:37;20.58;;;8.38;;
65831;SDS011;52593;42.648;23.332;2023-04-03T06:41:03;19.43;;;8.50;;
65831;SDS011;52593;42.648;23.332;2023-04-03T06:43:29;20.00;;;8.35;;
65831;SDS011;52593;42.648;23.332;2023-04-03T06:45:56;19.43;;;8.10;;
65831;SDS011;52593;42.648;23.332;2023-04-03T06:48:21;22.83;;;8.13;;
65831;SDS011;52593;42.648;23.332;2023-04-03T06:50:47;17.80;;;8.07;;
65831;SDS011;52593;42.648;23.332;2023-04-03T06:53:12;24.37;;;8.40;;
65831;SDS011;52593;42.648;23.332;2023-04-03T06:55:37;18.63;;;8.27;;
65831;SDS011;52593;42.648;23.332;2023-04-03T06:58:03;18.88;;;8.07;;
65831;SDS011;52593;42.648;23.332;2023-04-03T07:00:29;17.63;;;8.27;;
65831;SDS011;52593;42.648;23.332;2023-04-03T07:02:55;20.27;;;8.80;;
65831;SDS011;52593;42.648;23.332;2023-04-03T07:05:22;25.77;;;8.52;;
65831;SDS011;52593;42.648;23.332;2023-04-03T07:07:48;21.83;;;9.25;;
65831;SDS011;52593;42.648;23.332;2023-04-03T07:10:15;19.90;;;9.48;;
65831;SDS011;52593;42.648;23.332;2023-04-03T07:12:41;22.27;;;9.37;;
65831;SDS011;52593;42.648;23.332;2023-04-03T07:15:06;23.55;;;9.55;;
65831;SDS011;52593;42.648;23.332;2023-04-03T07:17:33;20.20;;;9.07;;
65831;SDS011;52593;42.648;23.332;2023-04-03T07:19:59;22.80;;;9.20;;
65831;SDS011;52593;42.648;23.332;2023-04-03T07:22:25;26.35;;;11.40;;
65831;SDS011;52593;42.648;23.332;2023-04-03T07:24:50;22.13;;;9.23;;
65831;SDS011;52593;42.648;23.332;2023-04-03T07:27:16;17.38;;;8.50;;
65831;SDS011;52593;42.648;23.332;2023-04-03T07:29:42;18.83;;;9.40;;
65831;SDS011;52593;42.648;23.332;2023-04-03T07:32:09;21.63;;;9.15;;
65831;SDS011;52593;42.648;23.332;2023-04-03T07:34:34;24.20;;;11.20;;
65831;SDS011;52593;42.648;23.332;2023-04-03T07:37:00;19.13;;;8.77;;
65831;SDS011;52593;42.648;23.332;2023-04-03T07:39:27;12.10;;;5.60;;
65831;SDS011;52593;42.648;23.332;2023-04-03T07:41:53;13.45;;;6.55;;
65831;SDS011;52593;42.648;23.332;2023-04-03T07:44:20;12.75;;;6.47;;
65831;SDS011;52593;42.648;23.332;2023-04-03T07:46:46;14.37;;;6.80;;
65831;SDS011;52593;42.648;23.332;2023-04-03T07:49:11;18.30;;;7.67;;
65831;SDS011;52593;42.648;23.332;2023-04-03T07:51:37;12.23;;;6.37;;
65831;SDS011;52593;42.648;23.332;2023-04-03T07:54:02;15.17;;;6.53;;
65831;SDS011;52593;42.648;23.332;2023-04-03T07:56:28;13.05;;;6.63;;
65831;SDS011;52593;42.648;23.332;2023-04-03T07:58:54;12.17;;;5.60;;
65831;SDS011;52593;42.648;23.332;2023-04-03T08:01:20;9.97;;;5.60;;
65831;SDS011;52593;42.648;23.332;2023-04-03T08:03:45;15.07;;;5.60;;
65831;SDS011;52593;42.648;23.332;2023-04-03T08:06:11;12.00;;;6.10;;
65831;SDS011;52593;42.648;23.332;2023-04-03T08:08:37;13.25;;;7.22;;
65831;SDS011;52593;42.648;23.332;2023-04-03T08:11:03;18.57;;;7.80;;
65831;SDS011;52593;42.648;23.332;2023-04-03T08:13:30;20.13;;;8.70;;
65831;SDS011;52593;42.648;23.332;2023-04-03T08:15:56;16.67;;;8.63;;
65831;SDS011;52593;42.648;23.332;2023-04-03T08:18:23;17.90;;;9.47;;
65831;SDS011;52593;42.648;23.332;2023-04-03T08:20:50;21.90;;;11.27;;
65831;SDS011;52593;42.648;23.332;2023-04-03T08:23:16;27.33;;;12.15;;
65831;SDS011;52593;42.648;23.332;2023-04-03T08:25:43;25.30;;;12.85;;
65831;SDS011;52593;42.648;23.332;2023-04-03T08:28:09;28.08;;;13.38;;
65831;SDS011;52593;42.648;23.332;2023-04-03T08:30:38;25.50;;;13.18;;
65831;SDS011;52593;42.648;23.332;2023-04-03T08:33:04;22.27;;;12.30;;
65831;SDS011;52593;42.648;23.332;2023-04-03T08:35:31;21.42;;;10.85;;
65831;SDS011;52593;42.648;23.332;2023-04-03T08:37:56;22.83;;;9.30;;
65831;SDS011;52593;42.648;23.332;2023-04-03T08:40:22;22.42;;;11.52;;
65831;SDS011;52593;42.648;23.332;2023-04-03T08:48:27;28.48;;;11.35;;
65831;SDS011;52593;42.648;23.332;2023-04-03T08:51:04;17.15;;;9.80;;
65831;SDS011;52593;42.648;23.332;2023-04-03T08:53:40;18.03;;;8.97;;
65831;SDS011;52593;42.648;23.332;2023-04-03T08:56:10;21.77;;;9.20;;
65831;SDS011;52593;42.648;23.332;2023-04-03T08:58:50;21.58;;;10.00;;
65831;SDS011;52593;42.648;23.332;2023-04-03T09:01:23;21.65;;;10.80;;
65831;SDS011;52593;42.648;23.332;2023-04-03T09:03:53;23.23;;;12.38;;
65831;SDS011;52593;42.648;23.332;2023-04-03T09:06:20;25.80;;;12.53;;
65831;SDS011;52593;42.648;23.332;2023-04-03T09:08:50;24.17;;;10.27;;
65831;SDS011;52593;42.648;23.332;2023-04-03T09:11:26;21.60;;;10.45;;
65831;SDS011;52593;42.648;23.332;2023-04-03T09:14:02;24.27;;;11.43;;
65831;SDS011;52593;42.648;23.332;2023-04-03T09:16:52;18.48;;;9.93;;
65831;SDS011;52593;42.648;23.332;2023-04-03T09:19:24;19.10;;;8.27;;
65831;SDS011;52593;42.648;23.332;2023-04-03T09:22:07;20.77;;;8.55;;
65831;SDS011;52593;42.648;23.332;2023-04-03T09:24:41;13.32;;;6.43;;
65831;SDS011;52593;42.648;23.332;2023-04-03T09:27:09;19.00;;;7.80;;
65831;SDS011;52593;42.648;23.332;2023-04-03T09:29:39;16.42;;;6.90;;
65831;SDS011;52593;42.648;23.332;2023-04-03T09:34:51;10.68;;;4.35;;
65831;SDS011;52593;42.648;23.332;2023-04-03T09:42:50;5.15;;;2.25;;
65831;SDS011;52593;42.648;23.332;2023-04-03T09:45:50;6.43;;;1.75;;
65831;SDS011;52593;42.648;23.332;2023-04-03T09:53:35;3.80;;;1.40;;
65831;SDS011;52593;42.648;23.332;2023-04-03T09:56:02;8.38;;;1.95;;
65831;SDS011;52593;42.648;23.332;2023-04-03T09:58:37;3.70;;;1.25;;
65831;SDS011;52593;42.648;23.332;2023-04-03T10:01:05;3.95;;;1.40;;
65831;SDS011;52593;42.648;23.332;2023-04-03T10:03:35;4.20;;;1.43;;
65831;SDS011;52593;42.648;23.332;2023-04-03T10:06:02;5.70;;;1.60;;
65831;SDS011;52593;42.648;23.332;2023-04-03T10:08:32;3.95;;;1.40;;
65831;SDS011;52593;42.648;23.332;2023-04-03T10:13:31;4.93;;;1.83;;
65831;SDS011;52593;42.648;23.332;2023-04-03T10:16:04;8.20;;;1.80;;
65831;SDS011;52593;42.648;23.332;2023-04-03T10:18:47;7.15;;;2.75;;
65831;SDS011;52593;42.648;23.332;2023-04-03T10:21:48;10.90;;;3.10;;
65831;SDS011;52593;42.648;23.332;2023-04-03T10:29:45;5.97;;;2.30;;
65831;SDS011;52593;42.648;23.332;2023-04-03T10:37:53;5.90;;;2.47;;
65831;SDS011;52593;42.648;23.332;2023-04-03T10:40:40;7.25;;;2.50;;
65831;SDS011;52593;42.648;23.332;2023-04-03T10:46:07;5.00;;;1.90;;
65831;SDS011;52593;42.648;23.332;2023-04-03T10:48:50;5.93;;;2.05;;
65831;SDS011;52593;42.648;23.332;2023-04-03T10:51:38;6.70;;;1.95;;
65831;SDS011;52593;42.648;23.332;2023-04-03T10:54:19;9.13;;;2.03;;
65831;SDS011;52593;42.648;23.332;2023-04-03T10:56:56;8.70;;;2.10;;
65831;SDS011;52593;42.648;23.332;2023-04-03T11:02:15;7.63;;;2.90;;
65831;SDS011;52593;42.648;23.332;2023-04-03T11:05:06;6.60;;;2.85;;
65831;SDS011;52593;42.648;23.332;2023-04-03T11:07:40;8.18;;;2.63;;
65831;SDS011;52593;42.648;23.332;2023-04-03T11:10:15;8.03;;;3.13;;
65831;SDS011;52593;42.648;23.332;2023-04-03T11:12:58;8.10;;;2.70;;
65831;SDS011;52593;42.648;23.332;2023-04-03T11:15:32;7.88;;;3.10;;
65831;SDS011;52593;42.648;23.332;2023-04-03T11:18:00;6.03;;;2.38;;
65831;SDS011;52593;42.648;23.332;2023-04-03T11:20:38;7.18;;;3.58;;
65831;SDS011;52593;42.648;23.332;2023-04-03T11:23:17;7.50;;;3.30;;
65831;SDS011;52593;42.648;23.332;2023-04-03T11:25:50;8.02;;;3.50;;
65831;SDS011;52593;42.648;23.332;2023-04-03T11:28:19;9.25;;;3.22;;
65831;SDS011;52593;42.648;23.332;2023-04-03T11:36:24;7.97;;;3.40;;
65831;SDS011;52593;42.648;23.332;2023-04-03T11:38:56;8.18;;;3.80;;
65831;SDS011;52593;42.648;23.332;2023-04-03T11:41:26;9.73;;;4.07;;
65831;SDS011;52593;42.648;23.332;2023-04-03T11:43:58;7.82;;;3.70;;
65831;SDS011;52593;42.648;23.332;2023-04-03T11:47:11;8.57;;;4.20;;
65831;SDS011;52593;42.648;23.332;2023-04-03T12:05:56;24.70;;;9.45;;
65831;SDS011;52593;42.648;23.332;2023-04-03T12:13:41;24.60;;;8.13;;
65831;SDS011;52593;42.648;23.332;2023-04-03T12:29:16;20.10;;;9.03;;
65831;SDS011;52593;42.648;23.332;2023-04-03T12:32:05;24.90;;;11.60;;
65831;SDS011;52593;42.648;23.332;2023-04-03T12:40:26;25.15;;;8.32;;
65831;SDS011;52593;42.648;23.332;2023-04-03T12:43:25;26.98;;;9.00;;
65831;SDS011;52593;42.648;23.332;2023-04-03T12:46:03;16.38;;;6.82;;
65831;SDS011;52593;42.648;23.332;2023-04-03T12:48:39;22.45;;;8.65;;
65831;SDS011;52593;42.648;23.332;2023-04-03T12:54:12;18.98;;;7.97;;
65831;SDS011;52593;42.648;23.332;2023-04-03T12:56:41;13.48;;;6.63;;
65831;SDS011;52593;42.648;23.332;2023-04-03T12:59:14;13.90;;;6.67;;
65831;SDS011;52593;42.648;23.332;2023-04-03T13:01:57;15.30;;;7.05;;
65831;SDS011;52593;42.648;23.332;2023-04-03T13:04:24;12.07;;;6.13;;
65831;SDS011;52593;42.648;23.332;2023-04-03T13:06:52;12.45;;;5.22;;
65831;SDS011;52593;42.648;23.332;2023-04-03T13:09:18;9.07;;;4.80;;
65831;SDS011;52593;42.648;23.332;2023-04-03T13:11:46;10.82;;;4.30;;
65831;SDS011;52593;42.648;23.332;2023-04-03T13:14:22;12.75;;;5.47;;
65831;SDS011;52593;42.648;23.332;2023-04-03T13:17:00;16.73;;;8.03;;
65831;SDS011;52593;42.648;23.332;2023-04-03T13:19:36;12.90;;;6.00;;
65831;SDS011;52593;42.648;23.332;2023-04-03T13:22:04;13.77;;;6.43;;
65831;SDS011;52593;42.648;23.332;2023-04-03T13:24:33;12.50;;;6.25;;
65831;SDS011;52593;42.648;23.332;2023-04-03T13:27:02;11.38;;;5.70;;
65831;SDS011;52593;42.648;23.332;2023-04-03T13:29:30;11.73;;;5.80;;
65831;SDS011;52593;42.648;23.332;2023-04-03T13:32:01;11.45;;;5.93;;
65831;SDS011;52593;42.648;23.332;2023-04-03T13:34:32;10.63;;;5.37;;
65831;SDS011;52593;42.648;23.332;2023-04-03T13:37:03;10.43;;;5.05;;
65831;SDS011;52593;42.648;23.332;2023-04-03T13:39:33;11.25;;;5.75;;
65831;SDS011;52593;42.648;23.332;2023-04-03T13:44:49;11.15;;;5.93;;
65831;SDS011;52593;42.648;23.332;2023-04-03T13:47:41;11.00;;;6.20;;
65831;SDS011;52593;42.648;23.332;2023-04-03T13:55:30;19.90;;;9.10;;
65831;SDS011;52593;42.648;23.332;2023-04-03T13:58:22;17.65;;;7.35;;
65831;SDS011;52593;42.648;23.332;2023-04-03T14:03:13;16.27;;;6.93;;
65831;SDS011;52593;42.648;23.332;2023-04-03T14:06:00;17.08;;;8.30;;
65831;SDS011;52593;42.648;23.332;2023-04-03T14:08:26;22.33;;;10.30;;
65831;SDS011;52593;42.648;23.332;2023-04-03T14:10:52;19.00;;;8.13;;
65831;SDS011;52593;42.648;23.332;2023-04-03T14:13:18;12.50;;;6.67;;
65831;SDS011;52593;42.648;23.332;2023-04-03T14:15:46;13.32;;;7.18;;
65831;SDS011;52593;42.648;23.332;2023-04-03T14:18:14;10.98;;;5.80;;
65831;SDS011;52593;42.648;23.332;2023-04-03T14:20:42;8.93;;;4.90;;
65831;SDS011;52593;42.648;23.332;2023-04-03T14:23:08;9.18;;;4.88;;
65831;SDS011;52593;42.648;23.332;2023-04-03T14:25:35;9.23;;;5.17;;
65831;SDS011;52593;42.648;23.332;2023-04-03T14:28:00;9.80;;;4.75;;
65831;SDS011;52593;42.648;23.332;2023-04-03T14:30:28;9.70;;;4.50;;
65831;SDS011;52593;42.648;23.332;2023-04-03T14:32:56;8.02;;;4.63;;
65831;SDS011;52593;42.648;23.332;2023-04-03T14:35:22;9.23;;;4.45;;
65831;SDS011;52593;42.648;23.332;2023-04-03T14:37:48;7.65;;;4.10;;
65831;SDS011;52593;42.648;23.332;2023-04-03T14:40:22;8.00;;;4.17;;
65831;SDS011;52593;42.648;23.332;2023-04-03T14:42:52;8.32;;;3.50;;
65831;SDS011;52593;42.648;23.332;2023-04-03T14:45:20;6.93;;;3.42;;
65831;SDS011;52593;42.648;23.332;2023-04-03T14:47:47;8.30;;;3.88;;
65831;SDS011;52593;42.648;23.332;2023-04-03T14:50:16;8.10;;;4.32;;
65831;SDS011;52593;42.648;23.332;2023-04-03T14:52:52;8.30;;;4.17;;
65831;SDS011;52593;42.648;23.332;2023-04-03T14:55:21;10.35;;;5.32;;
65831;SDS011;52593;42.648;23.332;2023-04-03T14:57:48;9.73;;;4.85;;
65831;SDS011;52593;42.648;23.332;2023-04-03T15:00:14;9.27;;;4.40;;
65831;SDS011;52593;42.648;23.332;2023-04-03T15:02:42;11.88;;;5.43;;
65831;SDS011;52593;42.648;23.332;2023-04-03T15:05:08;11.27;;;4.83;;
65831;SDS011;52593;42.648;23.332;2023-04-03T15:07:36;9.98;;;4.45;;
65831;SDS011;52593;42.648;23.332;2023-04-03T15:12:39;8.77;;;4.15;;
65831;SDS011;52593;42.648;23.332;2023-04-03T15:15:05;9.43;;;4.50;;
65831;SDS011;52593;42.648;23.332;2023-04-03T15:17:31;10.02;;;4.60;;
65831;SDS011;52593;42.648;23.332;2023-04-03T15:19:56;10.53;;;5.07;;
65831;SDS011;52593;42.648;23.332;2023-04-03T15:22:23;12.38;;;5.28;;
65831;SDS011;52593;42.648;23.332;2023-04-03T15:24:49;9.67;;;4.90;;
65831;SDS011;52593;42.648;23.332;2023-04-03T15:27:14;10.32;;;5.00;;
65831;SDS011;52593;42.648;23.332;2023-04-03T15:29:41;11.15;;;4.85;;
65831;SDS011;52593;42.648;23.332;2023-04-03T15:32:07;10.47;;;5.13;;
65831;SDS011;52593;42.648;23.332;2023-04-03T15:34:33;14.13;;;6.28;;
65831;SDS011;52593;42.648;23.332;2023-04-03T15:36:59;12.10;;;6.10;;
65831;SDS011;52593;42.648;23.332;2023-04-03T15:39:25;13.30;;;6.37;;
65831;SDS011;52593;42.648;23.332;2023-04-03T15:41:51;13.55;;;6.82;;
65831;SDS011;52593;42.648;23.332;2023-04-03T15:44:17;14.80;;;7.18;;
65831;SDS011;52593;42.648;23.332;2023-04-03T15:46:43;12.67;;;6.43;;
65831;SDS011;52593;42.648;23.332;2023-04-03T15:49:10;13.15;;;6.80;;
65831;SDS011;52593;42.648;23.332;2023-04-03T15:51:36;14.20;;;7.13;;
65831;SDS011;52593;42.648;23.332;2023-04-03T15:54:02;14.37;;;6.97;;
65831;SDS011;52593;42.648;23.332;2023-04-03T15:56:27;17.07;;;8.63;;
65831;SDS011;52593;42.648;23.332;2023-04-03T15:58:52;32.53;;;15.73;;
65831;SDS011;52593;42.648;23.332;2023-04-03T16:01:18;22.83;;;10.60;;
65831;SDS011;52593;42.648;23.332;2023-04-03T16:03:43;15.03;;;7.10;;
65831;SDS011;52593;42.648;23.332;2023-04-03T16:06:16;16.65;;;7.70;;
65831;SDS011;52593;42.648;23.332;2023-04-03T16:08:43;11.70;;;6.35;;
65831;SDS011;52593;42.648;23.332;2023-04-03T16:11:11;18.23;;;8.02;;
65831;SDS011;52593;42.648;23.332;2023-04-03T16:13:37;15.00;;;6.40;;
65831;SDS011;52593;42.648;23.332;2023-04-03T16:16:02;16.23;;;6.45;;
65831;SDS011;52593;42.648;23.332;2023-04-03T16:18:29;17.97;;;7.23;;
65831;SDS011;52593;42.648;23.332;2023-04-03T16:20:55;15.68;;;6.65;;